Terminal Aerodrome Forecast
Issued by NWS Lake Charles, LA

Home | Current Version | Previous Version | Text Only | Print | Product List | Glossary On
Versions: 1 2 3 4 5 6 7 8 9 10 11 12 13 14 15 16 17 18 19 20 21
000
FTUS44 KLCH 291120
TAFBPT
TAF
KBPT 291120Z 2912/3012 15025G32KT P6SM VCSH OVC015
     FM291600 15027G35KT P6SM VCSH OVC020
     FM300500 16027G35KT P6SM VCTS OVC015CB
      TEMPO 3008/3010 1SM +TSRA=

USA.gov is the U.S. government's official web portal to all federal, state and local government web resources and services.